createdAt,value
2023-03-13T00:01:37.626Z,7.70
2023-03-13T00:04:05.922Z,7.70
2023-03-13T00:06:36.899Z,7.70
2023-03-13T00:09:06.943Z,7.70
2023-03-13T00:11:34.886Z,7.80
2023-03-13T00:14:04.257Z,7.70
2023-03-13T00:16:34.405Z,7.80
2023-03-13T00:19:02.195Z,7.70
2023-03-13T00:21:33.337Z,7.70
2023-03-13T00:24:01.219Z,7.70
2023-03-13T00:26:30.310Z,7.60
2023-03-13T00:28:58.263Z,7.60
2023-03-13T00:31:33.124Z,7.70
2023-03-13T00:34:02.809Z,7.60
2023-03-13T00:36:33.139Z,7.70
2023-03-13T00:39:01.054Z,7.70
2023-03-13T00:41:31.434Z,7.70
2023-03-13T00:44:02.068Z,7.70
2023-03-13T00:46:30.452Z,7.70
2023-03-13T00:48:58.415Z,7.70
2023-03-13T00:51:27.236Z,7.60
2023-03-13T00:53:56.890Z,7.70
2023-03-13T00:56:24.559Z,7.70
2023-03-13T00:58:52.249Z,7.70
2023-03-13T01:01:23.221Z,7.90
2023-03-13T01:03:56.948Z,7.80
2023-03-13T01:06:29.382Z,7.90
2023-03-13T01:08:57.013Z,7.80
2023-03-13T01:11:30.399Z,7.80
2023-03-13T01:14:01.214Z,7.80
2023-03-13T01:16:31.293Z,7.90
2023-03-13T01:19:05.717Z,7.90
2023-03-13T01:21:33.703Z,7.90
2023-03-13T01:24:01.337Z,7.90
2023-03-13T01:26:29.175Z,7.90
2023-03-13T01:28:57.442Z,8.00
2023-03-13T01:31:28.872Z,8.10
2023-03-13T01:33:59.326Z,8.10
2023-03-13T01:36:27.871Z,8.10
2023-03-13T01:38:58.423Z,8.00
2023-03-13T01:41:28.020Z,8.00
2023-03-13T01:43:55.732Z,8.10
2023-03-13T01:46:25.420Z,8.20
2023-03-13T01:49:10.120Z,8.20
2023-03-13T01:51:43.560Z,8.30
2023-03-13T01:54:29.449Z,8.30
2023-03-13T01:57:05.976Z,8.30
2023-03-13T01:59:57.008Z,8.30
2023-03-13T02:02:29.601Z,8.40
2023-03-13T02:05:01.957Z,8.30
2023-03-13T02:07:58.721Z,8.40
2023-03-13T02:10:29.583Z,8.40
2023-03-13T02:12:58.373Z,8.40
2023-03-13T02:15:28.186Z,8.40
2023-03-13T02:17:56.992Z,8.60
2023-03-13T02:20:25.287Z,8.40
2023-03-13T02:23:01.395Z,8.40
2023-03-13T02:25:41.771Z,8.40
2023-03-13T02:28:21.870Z,8.40
2023-03-13T02:30:54.246Z,8.50
2023-03-13T02:33:26.266Z,8.50
2023-03-13T02:35:54.671Z,8.50
2023-03-13T02:38:25.257Z,8.50
2023-03-13T02:40:57.472Z,8.60
2023-03-13T02:43:36.945Z,8.70
2023-03-13T02:46:12.660Z,9.00
2023-03-13T02:48:43.637Z,9.20
2023-03-13T02:51:32.683Z,9.40
2023-03-13T02:54:08.710Z,9.40
2023-03-13T02:56:38.549Z,9.50
2023-03-13T02:59:07.155Z,9.50
2023-03-13T03:01:37.106Z,9.50
2023-03-13T03:04:07.849Z,9.70
2023-03-13T03:06:35.589Z,9.70
2023-03-13T03:09:03.662Z,9.60
2023-03-13T03:11:31.253Z,9.60
2023-03-13T03:13:58.980Z,9.70
2023-03-13T03:16:26.695Z,9.70
2023-03-13T03:18:54.413Z,9.80
2023-03-13T03:21:23.764Z,9.90
2023-03-13T03:23:51.785Z,10.00
2023-03-13T03:26:19.660Z,10.10
2023-03-13T03:28:47.278Z,9.90
2023-03-13T03:31:16.391Z,10.10
2023-03-13T03:33:44.866Z,10.10
2023-03-13T03:36:15.562Z,10.10
2023-03-13T03:38:43.476Z,10.10
2023-03-13T03:41:13.934Z,10.10
2023-03-13T03:43:42.285Z,10.10
2023-03-13T03:46:09.964Z,10.10
2023-03-13T03:48:37.784Z,10.20
2023-03-13T03:51:05.938Z,10.30
2023-03-13T03:53:36.546Z,10.30
2023-03-13T03:56:04.509Z,10.20
2023-03-13T03:58:32.144Z,10.30
2023-03-13T04:01:00.274Z,10.20
2023-03-13T04:03:27.988Z,10.20
2023-03-13T04:05:55.710Z,10.20
2023-03-13T04:08:24.445Z,10.10
2023-03-13T04:10:52.515Z,10.10
2023-03-13T04:13:20.224Z,10.10
2023-03-13T04:15:48.788Z,10.20
2023-03-13T04:18:16.689Z,10.20
2023-03-13T04:20:44.681Z,10.20
2023-03-13T04:23:12.384Z,10.30
2023-03-13T04:25:42.845Z,10.40
2023-03-13T04:28:10.440Z,10.50
2023-03-13T04:30:38.057Z,10.40
2023-03-13T04:33:05.757Z,10.50
2023-03-13T04:35:33.981Z,10.50
2023-03-13T04:38:04.414Z,10.60
2023-03-13T04:40:34.986Z,10.50
2023-03-13T04:43:02.583Z,10.50
2023-03-13T04:45:30.260Z,10.50
2023-03-13T04:47:57.887Z,10.50
2023-03-13T04:50:25.508Z,10.70
2023-03-13T04:52:56.057Z,10.90
2023-03-13T04:55:24.099Z,10.90
2023-03-13T04:57:51.676Z,11.10
2023-03-13T05:00:19.624Z,11.30
2023-03-13T05:02:48.741Z,11.30
2023-03-13T05:05:16.508Z,11.50
2023-03-13T05:07:44.101Z,11.60
2023-03-13T05:10:11.750Z,11.60
2023-03-13T05:12:39.399Z,11.50
2023-03-13T05:15:07.604Z,11.60
2023-03-13T05:17:35.388Z,11.50
2023-03-13T05:20:04.142Z,11.40
2023-03-13T05:22:31.793Z,11.40
2023-03-13T05:24:59.411Z,11.30
2023-03-13T05:27:27.022Z,11.20
2023-03-13T05:29:54.623Z,11.20
2023-03-13T05:32:22.348Z,11.20
2023-03-13T05:34:49.966Z,11.30
2023-03-13T05:37:17.662Z,11.50
2023-03-13T05:39:45.228Z,11.70
2023-03-13T05:42:12.836Z,11.90
2023-03-13T05:44:40.432Z,11.90
2023-03-13T05:47:10.549Z,12.00
2023-03-13T05:49:38.174Z,12.10
2023-03-13T05:52:05.837Z,12.10
2023-03-13T05:54:33.434Z,12.20
2023-03-13T05:57:01.182Z,12.20
2023-03-13T05:59:29.681Z,12.20
2023-03-13T06:01:57.288Z,12.30
2023-03-13T06:04:25.109Z,12.30
2023-03-13T06:06:52.809Z,12.30
2023-03-13T06:09:20.708Z,12.40
2023-03-13T06:11:48.381Z,12.40
2023-03-13T06:14:15.980Z,12.40
2023-03-13T06:16:43.660Z,12.40
2023-03-13T06:19:11.851Z,12.60
2023-03-13T06:21:45.146Z,12.60
2023-03-13T06:24:12.738Z,12.50
2023-03-13T06:26:40.336Z,12.40
2023-03-13T06:29:07.899Z,12.50
2023-03-13T06:31:38.453Z,12.60
2023-03-13T06:34:06.226Z,12.70
2023-03-13T06:36:34.029Z,12.70
2023-03-13T06:39:01.714Z,12.70
2023-03-13T06:41:29.514Z,12.70
2023-03-13T06:43:57.119Z,12.80
2023-03-13T06:46:25.938Z,12.70
2023-03-13T06:48:56.666Z,12.70
2023-03-13T06:51:27.571Z,12.80
2023-03-13T06:53:55.244Z,12.90
2023-03-13T06:56:23.339Z,12.90
2023-03-13T06:58:51.046Z,12.90
2023-03-13T07:01:18.858Z,13.00
2023-03-13T07:03:48.017Z,13.10
2023-03-13T07:06:16.736Z,13.10
2023-03-13T07:08:44.631Z,13.20
2023-03-13T07:11:14.205Z,13.20
2023-03-13T07:13:42.330Z,13.30
2023-03-13T07:16:13.147Z,13.30
2023-03-13T07:18:47.349Z,13.30
2023-03-13T07:21:15.403Z,13.30
2023-03-13T07:23:43.077Z,13.30
2023-03-13T07:26:13.577Z,13.30
2023-03-13T07:28:41.507Z,13.40
2023-03-13T07:31:21.622Z,13.40
2023-03-13T07:33:49.535Z,13.40
2023-03-13T07:36:17.851Z,13.50
2023-03-13T07:38:48.574Z,13.50
2023-03-13T07:41:16.737Z,13.50
2023-03-13T07:43:45.685Z,13.40
2023-03-13T07:46:15.763Z,13.40
2023-03-13T07:48:43.488Z,13.50
2023-03-13T07:51:33.477Z,13.40
2023-03-13T07:54:08.309Z,13.40
2023-03-13T07:56:35.901Z,13.40
2023-03-13T07:59:03.527Z,13.40
2023-03-13T08:01:31.563Z,13.50
2023-03-13T08:04:02.133Z,13.50
2023-03-13T08:06:37.351Z,13.50
2023-03-13T08:09:05.623Z,13.60
2023-03-13T08:11:33.988Z,13.40
2023-03-13T08:14:01.949Z,13.40
2023-03-13T08:16:34.132Z,13.40
2023-03-13T08:19:05.076Z,13.30
2023-03-13T08:21:37.821Z,13.30
2023-03-13T08:24:10.879Z,13.40
2023-03-13T08:26:40.790Z,13.50
2023-03-13T08:29:14.240Z,13.40
2023-03-13T08:31:51.503Z,13.50
2023-03-13T08:34:19.400Z,13.60
2023-03-13T08:36:47.422Z,14.00
2023-03-13T08:39:17.568Z,13.60
2023-03-13T08:41:45.410Z,13.70
2023-03-13T08:44:21.534Z,13.60
2023-03-13T08:46:49.810Z,14.10
2023-03-13T08:49:18.348Z,13.40
2023-03-13T08:51:46.043Z,13.60
2023-03-13T08:54:13.645Z,13.40
2023-03-13T08:56:43.535Z,13.60
2023-03-13T08:59:11.132Z,13.50
2023-03-13T09:01:41.407Z,13.60
2023-03-13T09:04:09.129Z,13.90
2023-03-13T09:06:38.619Z,13.90
2023-03-13T09:09:08.983Z,14.10
2023-03-13T09:11:39.233Z,14.10
2023-03-13T09:14:10.837Z,14.30
2023-03-13T09:16:38.636Z,14.20
2023-03-13T09:19:06.712Z,14.90
2023-03-13T09:21:35.874Z,14.10
2023-03-13T09:24:03.797Z,14.20
2023-03-13T09:26:31.511Z,14.10
2023-03-13T09:28:59.294Z,14.10
2023-03-13T09:31:31.591Z,14.20
2023-03-13T09:34:00.260Z,14.20
2023-03-13T09:36:28.398Z,14.20
2023-03-13T09:38:59.858Z,14.20
2023-03-13T09:41:34.558Z,14.10
2023-03-13T09:44:23.205Z,14.10
2023-03-13T09:46:53.873Z,13.90
2023-03-13T09:49:33.082Z,13.90
2023-03-13T09:52:09.845Z,14.80
2023-03-13T09:54:49.183Z,13.80
2023-03-13T09:57:20.209Z,13.70
2023-03-13T09:59:55.043Z,13.70
2023-03-13T10:02:36.569Z,13.70
2023-03-13T10:05:21.778Z,13.80
2023-03-13T10:07:49.664Z,13.70
2023-03-13T10:10:21.649Z,13.70
2023-03-13T10:12:53.922Z,13.70
2023-03-13T10:15:37.152Z,13.60
2023-03-13T10:18:22.560Z,13.60
2023-03-13T10:20:56.757Z,13.60
2023-03-13T10:23:40.579Z,13.60
2023-03-13T10:26:21.354Z,13.60
2023-03-13T10:28:51.471Z,13.50
2023-03-13T10:31:31.448Z,13.60
2023-03-13T10:34:14.639Z,13.50
2023-03-13T10:36:45.015Z,13.60
2023-03-13T10:39:21.475Z,14.30
2023-03-13T10:41:51.036Z,13.50
2023-03-13T10:44:22.963Z,13.40
2023-03-13T10:46:51.362Z,13.40
2023-03-13T10:49:21.553Z,13.30
2023-03-13T10:51:53.696Z,13.30
2023-03-13T10:54:35.192Z,13.30
2023-03-13T10:57:24.879Z,13.40
2023-03-13T10:59:54.069Z,13.40
2023-03-13T11:02:38.380Z,13.50
2023-03-13T11:05:32.531Z,13.50
2023-03-13T11:08:12.232Z,13.50
2023-03-13T11:10:52.830Z,13.70
2023-03-13T11:13:37.134Z,13.60
2023-03-13T11:16:28.121Z,13.60
2023-03-13T11:19:14.010Z,13.60
2023-03-13T11:22:03.665Z,13.60
2023-03-13T11:24:44.101Z,13.70
2023-03-13T11:27:32.835Z,13.70
2023-03-13T11:30:22.801Z,13.70
2023-03-13T11:33:12.396Z,13.60
2023-03-13T11:35:54.004Z,13.70
2023-03-13T11:38:40.708Z,13.70
2023-03-13T11:41:45.067Z,13.70
2023-03-13T11:44:30.895Z,13.70
2023-03-13T11:46:59.684Z,13.80
2023-03-13T11:50:01.560Z,13.80
2023-03-13T11:52:40.605Z,13.80
2023-03-13T11:55:34.697Z,13.90
2023-03-13T11:58:23.560Z,13.90
2023-03-13T12:00:56.771Z,13.90
2023-03-13T12:03:34.608Z,13.90
2023-03-13T12:06:27.138Z,14.00
2023-03-13T12:09:04.733Z,14.00
2023-03-13T12:11:55.240Z,14.10
2023-03-13T12:14:27.849Z,14.10
2023-03-13T12:17:03.299Z,14.30
2023-03-13T12:19:41.263Z,14.20
2023-03-13T12:22:27.259Z,14.20
2023-03-13T12:25:24.776Z,14.50
2023-03-13T12:28:13.029Z,14.70
2023-03-13T12:30:45.059Z,15.00
2023-03-13T12:33:40.004Z,15.30
2023-03-13T12:36:20.412Z,15.50
2023-03-13T12:38:59.224Z,15.60
2023-03-13T12:41:41.956Z,15.90
2023-03-13T12:44:13.914Z,16.30
2023-03-13T12:46:48.545Z,16.70
2023-03-13T12:49:35.165Z,17.20
2023-03-13T12:52:18.048Z,18.10
2023-03-13T12:54:57.146Z,19.40
2023-03-13T12:57:54.863Z,20.50
2023-03-13T13:00:26.615Z,21.90
2023-03-13T13:03:17.973Z,22.80
2023-03-13T13:06:13.848Z,24.00
2023-03-13T13:08:54.101Z,26.40
2023-03-13T13:11:34.193Z,28.90
2023-03-13T13:14:05.994Z,30.10
2023-03-13T13:16:34.000Z,30.80
2023-03-13T13:19:23.378Z,30.60
2023-03-13T13:22:28.919Z,31.20
2023-03-13T13:24:59.246Z,31.30
2023-03-13T13:27:33.210Z,31.30
2023-03-13T13:30:24.498Z,31.90
2023-03-13T13:32:56.735Z,32.10
2023-03-13T13:35:29.093Z,30.30
2023-03-13T13:38:18.412Z,29.60
2023-03-13T13:41:00.564Z,30.80
2023-03-13T13:43:33.486Z,31.70
2023-03-13T13:46:06.322Z,31.40
2023-03-13T13:48:39.925Z,30.50
2023-03-13T13:51:07.719Z,30.40
2023-03-13T13:53:46.231Z,29.40
2023-03-13T13:56:42.458Z,28.80
2023-03-13T13:59:22.416Z,27.60
2023-03-13T14:02:07.847Z,27.60
2023-03-13T14:05:01.828Z,27.70
2023-03-13T14:07:41.500Z,28.90
2023-03-13T14:10:17.936Z,29.50
2023-03-13T14:12:51.565Z,29.70
2023-03-13T14:15:24.491Z,28.50
2023-03-13T14:17:53.691Z,26.40
2023-03-13T14:20:34.713Z,24.70
2023-03-13T14:23:08.297Z,23.10
2023-03-13T14:25:48.108Z,21.80
2023-03-13T14:28:27.705Z,20.30
2023-03-13T14:30:58.347Z,19.10
2023-03-13T14:33:32.328Z,17.50
2023-03-13T14:36:00.311Z,15.80
2023-03-13T14:38:32.913Z,15.00
2023-03-13T14:41:00.612Z,14.50
2023-03-13T14:43:35.963Z,14.20
2023-03-13T14:46:21.685Z,14.00
2023-03-13T14:48:49.633Z,13.80
2023-03-13T14:51:25.537Z,13.60
2023-03-13T14:54:01.476Z,13.70
2023-03-13T14:56:43.296Z,13.60
2023-03-13T14:59:23.505Z,13.80
2023-03-13T15:02:04.514Z,13.70
2023-03-13T15:05:01.041Z,13.70
2023-03-13T15:07:37.406Z,13.70
2023-03-13T15:10:30.271Z,13.70
2023-03-13T15:12:57.994Z,13.70
2023-03-13T15:15:25.873Z,13.60
2023-03-13T15:17:53.515Z,13.80
2023-03-13T15:20:22.995Z,13.80
2023-03-13T15:22:50.654Z,13.70
2023-03-13T15:25:23.369Z,13.60
2023-03-13T15:27:51.484Z,13.50
2023-03-13T15:30:23.066Z,13.40
2023-03-13T15:32:51.909Z,13.30
2023-03-13T15:35:30.446Z,13.30
2023-03-13T15:38:00.411Z,13.20
2023-03-13T15:40:30.831Z,13.20
2023-03-13T15:42:59.492Z,13.20
2023-03-13T15:45:27.137Z,13.30
2023-03-13T15:47:54.956Z,13.30
2023-03-13T15:50:29.509Z,13.30
2023-03-13T15:53:00.898Z,14.10
2023-03-13T15:55:29.309Z,14.80
2023-03-13T15:57:57.086Z,15.00
2023-03-13T16:00:26.715Z,15.00
2023-03-13T16:02:54.322Z,14.90
2023-03-13T16:05:22.104Z,14.80
2023-03-13T16:07:49.658Z,14.80
2023-03-13T16:10:22.559Z,14.80
2023-03-13T16:12:52.525Z,14.70
2023-03-13T16:15:20.704Z,14.60
2023-03-13T16:17:48.299Z,14.50
2023-03-13T16:20:20.894Z,14.40
2023-03-13T16:22:48.473Z,14.20
2023-03-13T16:25:16.181Z,14.00
2023-03-13T16:27:43.845Z,13.90
2023-03-13T16:30:32.895Z,13.90
2023-03-13T16:33:00.978Z,13.80
2023-03-13T16:35:29.360Z,13.70
2023-03-13T16:37:58.286Z,13.80
2023-03-13T16:40:29.218Z,13.70
2023-03-13T16:42:56.984Z,13.60
2023-03-13T16:45:25.416Z,13.50
2023-03-13T16:47:53.611Z,13.40
2023-03-13T16:50:23.309Z,13.40
2023-03-13T16:52:51.714Z,13.20
2023-03-13T16:55:20.655Z,13.20
2023-03-13T16:57:48.340Z,13.10
2023-03-13T17:00:19.317Z,13.00
2023-03-13T17:02:48.178Z,12.90
2023-03-13T17:05:16.251Z,12.90
2023-03-13T17:07:48.222Z,12.80
2023-03-13T17:10:18.814Z,12.80
2023-03-13T17:12:46.894Z,12.70
2023-03-13T17:15:14.911Z,12.70
2023-03-13T17:17:45.520Z,12.70
2023-03-13T17:20:14.791Z,12.70
2023-03-13T17:22:42.602Z,12.60
2023-03-13T17:25:10.616Z,12.60
2023-03-13T17:27:39.108Z,12.40
2023-03-13T17:30:26.010Z,12.40
2023-03-13T17:32:54.316Z,12.40
2023-03-13T17:35:23.168Z,12.40
2023-03-13T17:37:51.040Z,12.40
2023-03-13T17:40:21.907Z,12.40
2023-03-13T17:42:49.803Z,12.40
2023-03-13T17:45:18.399Z,12.40
2023-03-13T17:47:46.341Z,12.40
2023-03-13T17:50:20.111Z,12.30
2023-03-13T17:52:47.851Z,12.40
2023-03-13T17:55:15.599Z,12.40
2023-03-13T17:57:43.888Z,12.30
2023-03-13T18:00:29.081Z,12.30
2023-03-13T18:02:57.118Z,12.40
2023-03-13T18:05:25.903Z,12.40
2023-03-13T18:07:55.753Z,12.40
2023-03-13T18:10:26.354Z,12.50
2023-03-13T18:12:54.645Z,12.50
2023-03-13T18:15:24.354Z,12.60
2023-03-13T18:17:52.744Z,12.60
2023-03-13T18:20:23.436Z,12.60
2023-03-13T18:22:51.012Z,12.60
2023-03-13T18:25:19.394Z,12.60
2023-03-13T18:27:46.982Z,12.60
2023-03-13T18:30:20.796Z,12.60
2023-03-13T18:32:48.997Z,12.70
2023-03-13T18:35:17.485Z,12.60
2023-03-13T18:37:47.253Z,12.60
2023-03-13T18:40:23.656Z,12.60
2023-03-13T18:42:51.319Z,12.60
2023-03-13T18:45:25.084Z,12.50
2023-03-13T18:47:53.292Z,12.50
2023-03-13T18:50:26.564Z,12.40
2023-03-13T18:52:58.597Z,12.50
2023-03-13T18:55:28.864Z,12.50
2023-03-13T18:57:56.864Z,12.60
2023-03-13T19:00:30.194Z,12.60
2023-03-13T19:02:57.914Z,12.60
2023-03-13T19:05:25.809Z,12.60
2023-03-13T19:07:53.488Z,12.60
2023-03-13T19:10:24.150Z,12.70
2023-03-13T19:12:53.795Z,12.70
2023-03-13T19:15:24.423Z,12.70
2023-03-13T19:17:52.865Z,12.70
2023-03-13T19:20:22.741Z,12.70
2023-03-13T19:22:50.339Z,12.70
2023-03-13T19:25:18.163Z,12.60
2023-03-13T19:27:47.520Z,12.60
2023-03-13T19:30:23.601Z,12.60
2023-03-13T19:32:51.945Z,12.50
2023-03-13T19:35:21.657Z,12.60
2023-03-13T19:37:49.762Z,12.50
2023-03-13T19:40:28.410Z,12.30
2023-03-13T19:42:56.085Z,12.20
2023-03-13T19:45:23.673Z,12.10
2023-03-13T19:47:51.264Z,12.10
2023-03-13T19:50:22.216Z,12.10
2023-03-13T19:52:50.078Z,11.90
2023-03-13T19:55:17.781Z,11.90
2023-03-13T19:57:45.462Z,11.80
2023-03-13T20:00:21.803Z,11.60
2023-03-13T20:02:51.912Z,11.50
2023-03-13T20:05:19.550Z,11.40
2023-03-13T20:07:48.229Z,11.30
2023-03-13T20:10:16.223Z,11.40
2023-03-13T20:12:43.855Z,11.20
2023-03-13T20:15:11.779Z,11.30
2023-03-13T20:17:39.386Z,11.20
2023-03-13T20:20:08.442Z,11.20
2023-03-13T20:22:36.103Z,11.10
2023-03-13T20:25:04.014Z,11.10
2023-03-13T20:27:31.676Z,11.10
2023-03-13T20:30:00.715Z,11.20
2023-03-13T20:32:28.524Z,11.00
2023-03-13T20:34:56.281Z,10.90
2023-03-13T20:37:23.860Z,10.90
2023-03-13T20:39:51.448Z,10.90
2023-03-13T20:42:20.813Z,10.90
2023-03-13T20:44:48.457Z,10.90
2023-03-13T20:47:16.216Z,10.90
2023-03-13T20:49:43.810Z,10.80
2023-03-13T20:52:11.456Z,10.60
2023-03-13T20:54:39.084Z,10.50
2023-03-13T20:57:08.493Z,10.50
2023-03-13T20:59:36.111Z,10.50
2023-03-13T21:02:04.035Z,10.50
2023-03-13T21:04:31.882Z,10.40
2023-03-13T21:07:04.432Z,10.40
2023-03-13T21:09:34.019Z,10.40
2023-03-13T21:12:02.067Z,10.50
2023-03-13T21:14:30.145Z,10.50
2023-03-13T21:16:57.801Z,10.60
2023-03-13T21:19:28.529Z,10.60
2023-03-13T21:21:58.692Z,10.60
2023-03-13T21:24:26.359Z,10.40
2023-03-13T21:26:55.244Z,10.50
2023-03-13T21:29:23.016Z,10.60
2023-03-13T21:31:50.666Z,10.60
2023-03-13T21:34:18.279Z,10.70
2023-03-13T21:36:45.915Z,10.70
2023-03-13T21:39:13.561Z,10.60
2023-03-13T21:41:41.115Z,10.60
2023-03-13T21:44:08.746Z,10.60
2023-03-13T21:46:36.435Z,10.60
2023-03-13T21:49:04.117Z,10.60
2023-03-13T21:51:31.776Z,10.50
2023-03-13T21:53:59.371Z,10.60
2023-03-13T21:56:26.963Z,10.60
2023-03-13T21:58:54.735Z,10.50
2023-03-13T22:01:22.508Z,10.40
2023-03-13T22:03:50.824Z,10.40
2023-03-13T22:06:22.153Z,10.40
2023-03-13T22:08:50.804Z,10.40
2023-03-13T22:11:18.862Z,10.60
2023-03-13T22:13:46.511Z,10.60
2023-03-13T22:16:14.184Z,10.60
2023-03-13T22:18:43.138Z,10.60
2023-03-13T22:21:10.938Z,10.70
2023-03-13T22:23:41.559Z,10.70
2023-03-13T22:26:14.488Z,10.90
2023-03-13T22:28:42.305Z,10.90
2023-03-13T22:31:11.547Z,11.00
2023-03-13T22:33:42.133Z,10.90
2023-03-13T22:36:10.428Z,10.90
2023-03-13T22:38:40.857Z,10.90
2023-03-13T22:41:11.486Z,10.90
2023-03-13T22:43:42.384Z,10.90
2023-03-13T22:46:11.344Z,11.00
2023-03-13T22:48:39.752Z,10.90
2023-03-13T22:51:10.011Z,10.90
2023-03-13T22:53:39.723Z,11.00
2023-03-13T22:56:11.973Z,10.90
2023-03-13T22:58:41.172Z,10.90
2023-03-13T23:01:17.353Z,10.90
2023-03-13T23:03:46.965Z,10.80
2023-03-13T23:06:23.684Z,10.80
2023-03-13T23:08:51.782Z,10.90
2023-03-13T23:11:20.534Z,10.80
2023-03-13T23:13:48.553Z,10.80
2023-03-13T23:16:16.278Z,10.80
2023-03-13T23:18:44.877Z,10.80
2023-03-13T23:21:15.186Z,10.80
2023-03-13T23:23:47.118Z,10.80
2023-03-13T23:26:18.633Z,10.70
2023-03-13T23:28:49.051Z,10.70
2023-03-13T23:31:19.279Z,10.60
2023-03-13T23:33:47.768Z,10.70
2023-03-13T23:36:18.123Z,10.70
2023-03-13T23:38:49.814Z,10.80
2023-03-13T23:41:17.762Z,10.70
2023-03-13T23:43:45.513Z,10.60
2023-03-13T23:46:28.313Z,10.60
2023-03-13T23:48:57.884Z,10.60
2023-03-13T23:51:29.064Z,10.60
2023-03-13T23:53:58.391Z,10.60
2023-03-13T23:56:26.210Z,10.60
2023-03-13T23:58:54.550Z,10.70
